Portada
METAR-TAF:

METAR-TAF

Aeropuertos :

Fort Rucker, Alabama, Estados Unidos

latitud: 31-21N, longitud: 085-40W, altitud: 97 m

Observación

El informe se hizo hace 43 minutos, a las 05:03 UTC
Viento calma
Temperatura 24°C
Humedad 94%
Presión 1015 hPa
Visibilidad: 11.3 km
Cielo nuboso a una altura de 400 ft

METAR: KHEY 080503Z AUTO 00000KT 7SM BKN004 24/23 A2997 RMK AO2 SLP148

Hora: 00:46 (05:46 UTC)


TAF: falta

Observaciones y pronósticos meteorológicos de más de 4000 aeropuertos (mensajes METAR y TAF).

Los puntos amarillos y rojos representan las estaciones disponibles.

Ponga el ratón en el punto deseado para ver el nombre de la estación.

Haga clic para ver las observaciones y los pronósticos meteorológicos.

Para cambiar el mapa : haga clic en los botones verdes con una cruz de color negro para hacer un zoom, en el botón verde con un guión para alejar o en las flechas verdes para mapas adyacentes.


METAR-TAF: